KECG/ECG METAR and TAF weather

Enter ICAO airport designator
Station Type Date Time Source
KECG METAR 2023/02/05 12:54 UTC NOAA

KECG 051254Z 17003KT 10SM CLR 01/M04 A3043 RMK AO2 SLP303 T00061039


Station Type Date Time Source
KECG Decoded METAR 2023/02/05 12:54 UTC NOAA

ELIZABETH CITY C/G REGN AIRPORT , NC, United States (KECG) 36-15N 076-10W 11M
Feb 05, 2023 - 07:54 AM EST / 2023.02.05 1254 UTC
Wind: from the S (170 degrees) at 3 MPH (3 KT):0
Visibility: 10 mile(s):0
Sky conditions: clear
Temperature: 33.1 F (0.6 C)
Dew Point: 25.0 F (-3.9 C)
Relative Humidity: 71%
Pressure (altimeter): 30.43 in. Hg (1030 hPa)
ob: KECG 051254Z 17003KT 10SM CLR 01/M04 A3043 RMK AO2 SLP303 T00061039
cycle: 13

Station Type Date Time Source
KECG TAF 2023/02/05 12:59 UTC NOAA

TAF KECG 051155Z 0512/0612 19005KT P6SM BKN200
FM051700 18007KT P6SM OVC060
FM052000 17006KT P6SM -RA OVC035
FM052300 18006KT 5SM -RA BR OVC006
FM060700 27006KT P6SM BKN010
FM060900 29007KT P6SM SCT015 SCT250

Example: see airport list